Stanwood, Michigan
Current Conditions -  °F | °C
As of 12:15 PM on Saturday 25 Oct 2014 (Local Time) from KRQB Reporting Station
Clear Clear  
Wind Chill: 17°   Ceiling: Unl
Heat Index: 17°   Visibility: 10mi
Dew Point: 10°   Wind: 14mph
Humidity: 63%   Direction: 290°WNW
Pressure: 29.79"   Gusts: 26mph
Location:  43.58°N, 85.45°W
Report Text: KRQB 251615Z AUTO 29012G23KT 10SM CLR 17/10 A2979 RMK AO2 T01670097
Loading
Personal Weather Stations






























Interactive Weather Map
Tropical Storm Tracking
New forecast layout! Learn more

10-Day Weather Forecast

Advertisements
Track Severe Weather on mobile